Cold Bay, AK (99571)

12:22 AM AKDT on July 27, 2016 (GMT -0800)
Cold Bay | | Change Station

Elev 102 ft 55.22 °N, 162.73 °W | Updated 29 minutes ago

Overcast
Overcast
54 °F
Feels Like 54 °F
N
13
Wind Variable Wind from West

Today
High -- | Low -- °F
--% Chance of Precip.
Yesterday
High -- | Low -- °F
Precip. -- in
Pressure 29.78 in
Visibility 10.0 miles
Clouds Overcast 700 ft
Dew Point 52 °F
Humidity 93%
Rainfall 0.01 in
Snow Depth Not available.
6:51 AM 11:02 PM
Last Quarter, 45% visible
METAR PACD 270753Z AUTO 28011KT 10SM OVC007 12/11 A2978 RMK AO2 SLP083 T01220111 TSNO
Pressure 29.78 in
Visibility 10.0 miles
Clouds Overcast 700 ft
Dew Point 52 °F
Humidity 93%
Rainfall 0.01 in
Snow Depth Not available.
6:51 AM 11:02 PM
Last Quarter, 45% visible
METAR PACD 270753Z AUTO 28011KT 10SM OVC007 12/11 A2978 RMK AO2 SLP083 T01220111 TSNO

10-Day Weather Forecast

Almanac

Astronomy

Jul. 27, 2016 Rise Set
Actual Time
Civil Twilight
Nautical Twilight
Astronomical Twilight
Moon
Length of Visible Light
Length of Day
Tomorrow will be .
, % of the Moon is Illuminated

Today's Extremes

State Highs State Lows

Community

WunderPhotos

Upload Photos

1,927,818 photos uploaded!

WunderBlog® & News

Nearby

Air Quality

  Air Quality AQ Index Pollutant
Not available.

Snow Depth

Station Depth Elevation

Earthquake Activity

City Distance Mag. Time & Date
Minimum magnitude displayed is 2.5.

Coastal Water Temperatures

Place Temperature

Stations

Nearby Weather Stations

Station Location Temp. Windchill Dew Point Humidity Wind Precip. Elev Updated Type
                   

Watches & Warnings

There are currently no watches in effect.